Weather at Simón Bolívar International Airport

Public forecast

Using degrees Celsius for public forecast. Weather courtesy of forecast.io.

Current aviation weather report (METAR) for Simón Bolívar International Airport

2022/11/27 01:00 (retrieved 22 minutes ago)

SKSM 270100Z VRB02KT 9999 FEW020 OVC070 28/24 Q1012 RMK A2988

Closest aviation forecast (TAF) to Simón Bolívar International Airport

Forecast is more than 12 hours old.

Closest forecast is La Chinita International Airport, 151.4 nm (280.4 km) ESE.

2022/11/25 06:16 (retrieved 2 days ago)

TAF SVMC 250400Z 2506/2606 00000KT 9999 BKN013 TX33/2519Z TN22/2608Z TEMPO 2504/2509 06003KT 9000 DZ OVC013